Landels-Hill Big Creek Reserve Entrance, California Weather observations

Data are for 10 minute period ending at time listed.
 Day   Time   Solar   Ave.   Ave.  Ave.  Vector  Max.   Baro.   Total    
  of    of     Rad.   Air    Rel.  Wind   Wind   Wind  Press.  Precip.   
Year   Day            Temp.  Hum.  Speed  Dir.   Gust                    
2014   (PST)  Kw/m2    F      %     mph   deg.    mph    mb.     in.     
-------------------------------------------------------------------------
 325   13:10   0.50   62.2    70    1.3   232     5.1   1014.9    0.00 
 325   13:20   0.49   62.5    70    1.1   149     3.4   1014.9    0.00 
 325   13:30   0.47   62.5    71    1.7   135     3.4   1014.9    0.00 
 325   13:40   0.45   61.9    73    2.1   138     5.0   1015.2    0.00 
 325   13:50   0.45   62.3    73    1.6   185     5.0   1015.2    0.00 
 325   14:00   0.44   62.4    73    2.3   262     6.3   1015.1    0.00 
 325   14:10   0.42   62.4    73    1.5   151     5.3   1015.1    0.00 
 325   14:20   0.39   62.8    72    1.5   152     3.6   1015.1    0.00 
 325   14:30   0.36   62.4    72    2.6   131     6.0   1015.0    0.00 
 325   14:40   0.34   61.7    73    3.9   147     6.4   1015.2    0.00 
 325   14:50   0.32   61.5    74    4.5   118     8.5   1015.1    0.00 
 325   15:00   0.24   61.8    72    4.0   144     7.1   1015.0    0.00 
 325   15:10   0.30   61.8    72    4.3   167     8.2   1014.9    0.00 
 325   15:20   0.25   62.0    72    3.6   173     8.9   1015.1    0.00 
 325   15:30   0.21   62.3    70    2.5   332     6.9   1015.4    0.00 
 325   15:40   0.11   61.7    71    4.6   158    11.0   1015.3    0.00 
 325   15:50   0.09   60.8    74    5.1   139     9.1   1015.2    0.00 
 325   16:00   0.12   60.7    75    4.4   154     9.9   1015.0    0.00 
 325   16:10   0.16   61.0    74    4.9   155    10.2   1014.9    0.00 
 325   16:20   0.08   61.0    74    3.6   172     7.2   1014.8    0.00 
 325   16:30   0.03   60.9    75    0.8   222     2.4   1014.9    0.00 
 325   16:40   0.03   60.8    75    1.7    49     6.0   1014.9    0.00 
 325   16:50   0.02   60.6    75    1.1    36     3.2   1014.7    0.00 
 325   17:00   0.01   59.4    79    1.0    54     4.3   1015.0    0.00 
 325   17:10   0.00   59.7    77    2.0   101     5.3   1015.0    0.00 
 325   17:20   0.00   58.4    80    1.5    11     2.9   1014.9    0.00 
 325   17:30   0.00   57.1    85    2.0    10     3.9   1015.1    0.00 
 325   17:40   0.00   56.6    87    1.4    34     3.8   1015.7    0.00 
 325   17:50   0.00   56.9    86    2.4   356     5.4   1015.6    0.00 
 325   18:00   0.00   56.9    86    2.4     9     5.9   1015.1    0.00 
 325   18:10   0.00   56.7    86    3.4     0     6.2   1015.2    0.00 
 325   18:20   0.00   56.5    86    1.9    28     5.8   1015.4    0.00 
 325   18:30   0.00   56.3    86    1.1    27     3.3   1015.3    0.00 
 325   18:40   0.00   56.1    87    1.9    47     4.0   1015.5    0.00 
 325   18:50   0.00   55.9    87    1.5    27     3.9   1015.8    0.00 
 325   19:00   0.00   55.4    88    1.3    63     2.9   1015.9    0.00 
 325   19:10   0.00   55.1    89    1.8    18     5.4   1016.0    0.00 
 325   19:20   0.00   55.0    89    3.0    36     5.3   1016.0    0.00 
 325   19:30   0.00   54.9    89    3.2    18     6.0   1016.0    0.00 
 325   19:40   0.00   54.5    90    3.0   353     6.3   1016.1    0.00 
 325   19:50   0.00   54.4    90    2.1    40     4.5   1016.4    0.00 
 325   20:00   0.00   54.3    89    2.2    38     5.9   1016.4    0.00 
 325   20:10   0.00   54.0    89    2.4    38     5.1   1016.4    0.00 
 325   20:20   0.00   54.0    89    2.3    44     5.6   1016.6    0.00 
 325   20:30   0.00   53.6    89    2.6    30     6.0   1016.7    0.00 
 325   20:40   0.00   53.5    89    2.5    17     5.7   1016.9    0.00 
 325   20:50   0.00   53.1    90    2.4    35     6.6   1017.0    0.00 
 325   21:00   0.00   53.0    89    1.9    42     4.0   1017.0    0.00 
 325   21:10   0.00   52.8    89    2.8    23     6.4   1016.9    0.00 
 325   21:20   0.00   52.7    88    2.9    36     5.7   1017.0    0.00 
 325   21:30   0.00   52.7    87    1.7    30     5.1   1017.3    0.00 
 325   21:40   0.00   52.4    88    2.1    35     6.2   1017.4    0.00 
 325   21:50   0.00   52.0    89    2.2    48     5.0   1017.3    0.00 
 325   22:00   0.00   51.9    89    2.2    40     6.2   1017.4    0.00 
 325   22:10   0.00   51.8    89    3.0    46     6.1   1017.5    0.00 
 325   22:20   0.00   51.7    88    3.1    27     6.9   1017.3    0.00 
 325   22:30   0.00   51.9    87    4.1    28     9.0   1017.3    0.00 
 325   22:40   0.00   51.9    87    3.0    33     6.7   1017.4    0.00 
 325   22:50   0.00   52.1    86    2.4    34     7.2   1017.5    0.00 
 325   23:00   0.00   52.2    84    2.3    20     6.6   1017.6    0.00 
 325   23:10   0.00   51.7    85    2.4    43     5.1   1017.5    0.00 
 325   23:20   0.00   51.3    87    2.7    41     6.1   1017.6    0.00 
 325   23:30   0.00   51.4    86    2.6    34     5.6   1017.7    0.00 
 325   23:40   0.00   51.3    86    2.7    29     6.2   1017.7    0.00 
 325   23:50   0.00   51.2    87    2.7    50     5.0   1017.6    0.00 
 326    0:00   0.00   51.2    86    2.8    48     5.6   1017.5    0.00 
 326    0:10   0.00   51.1    86    3.2    52     6.7   1017.6    0.00 
 326    0:20   0.00   51.3    85    3.1    35     6.6   1017.8    0.00 
 326    0:30   0.00   51.7    84    2.7    32     7.0   1017.9    0.00 
 326    0:40   0.00   52.0    83    2.5    16     6.6   1017.9    0.00 
 326    0:50   0.00   51.9    84    2.5    48     4.9   1017.8    0.00 
 326    1:00   0.00   52.1    83    2.9    32     6.5   1017.6    0.00 
 326    1:10   0.00   52.3    83    4.0     6     9.3   1017.6    0.00 
 326    1:20   0.00   52.7    82    4.2     1     8.6   1017.6    0.00 
 326    1:30   0.00   53.1    81    1.6    21     4.1   1017.7    0.00 
 326    1:40   0.00   53.3    80    1.9    40     4.4   1017.8    0.00 
 326    1:50   0.00   53.3    81    1.3    44     2.9   1017.9    0.00 
 326    2:00   0.00   53.2    82    1.1    57     3.0   1018.0    0.00 
 326    2:10   0.00   53.3    82    2.1    19     5.0   1018.1    0.00 
 326    2:20   0.00   53.6    82    1.8    26     5.2   1018.1    0.00 
 326    2:30   0.00   53.5    82    1.8    40     3.9   1018.0    0.00 
 326    2:40   0.00   53.8    82    2.3    28     5.9   1017.9    0.00 
 326    2:50   0.00   53.6    82    2.7    24     6.9   1017.8    0.00 
 326    3:00   0.00   53.4    83    3.6    16     7.9   1017.7    0.00 
 326    3:10   0.00   53.0    85    3.6     4     7.7   1017.4    0.00 
 326    3:20   0.00   53.1    85    3.1    22     6.0   1017.3    0.00 
 326    3:30   0.00   53.6    83    2.1    46     4.5   1017.3    0.00 
 326    3:40   0.00   53.6    82    1.8    27     3.3   1017.3    0.00 
 326    3:50   0.00   52.9    84    1.9    30     3.9   1017.3    0.00 
 326    4:00   0.00   52.6    86    2.4    36     6.2   1017.1    0.00 
 326    4:10   0.00   52.7    85    2.0    41     5.6   1017.1    0.00 
 326    4:20   0.00   52.5    85    3.1    18     7.7   1017.0    0.00 
 326    4:30   0.00   52.6    86    3.7     9     6.9   1017.0    0.00 
 326    4:40   0.00   52.6    86    2.3    19     5.4   1016.9    0.00 
 326    4:50   0.00   52.9    85    2.9    35     6.2   1016.8    0.00 
 326    5:00   0.00   53.5    82    2.4    38     6.4   1016.8    0.00 
 326    5:10   0.00   53.6    82    2.7    45     4.9   1017.0    0.00 
 326    5:20   0.00   53.9    81    1.9    30     5.0   1017.1    0.00 
 326    5:30   0.00   54.0    81    2.5    45     5.4   1017.2    0.00 
 326    5:40   0.00   54.0    81    2.6    44     6.5   1017.1    0.00 
 326    5:50   0.00   54.0    81    2.5    44     5.7   1017.0    0.00 
 326    6:00   0.00   54.0    82    2.3    40     5.0   1016.7    0.00 
 326    6:10   0.00   54.4    80    2.4    27     6.3   1016.6    0.00 
 326    6:20   0.00   54.5    80    1.6    13     3.6   1016.9    0.00 
 326    6:30   0.00   54.4    82    1.8    24     3.0   1017.1    0.00 
 326    6:40   0.00   54.3    83    1.7    48     3.1   1017.2    0.00 
 326    6:50   0.00   54.4    84    1.0    28     2.6   1017.3    0.00 
 326    7:00   0.00   54.5    83    1.2    38     3.2   1017.7    0.00 
 326    7:10   0.01   54.6    83    2.0    33     3.7   1017.9    0.00 
 326    7:20   0.01   54.5    85    1.7    64     3.4   1017.9    0.00 
 326    7:30   0.01   54.9    85    1.3    16     3.4   1018.0    0.00 
 326    7:40   0.01   54.8    87    1.2   355     3.1   1018.2    0.00 
 326    7:50   0.03   54.6    89    2.0    12     6.2   1018.2    0.00 
 326    8:00   0.02   55.1    89    3.5     8     6.6   1018.3    0.00 
 326    8:10   0.03   55.4    88    2.3    26     6.0   1017.9    0.00 
 326    8:20   0.04   56.0    88    1.8    17     4.6   1017.7    0.00 
 326    8:30   0.04   56.6    88    0.7   349     3.3   1017.8    0.00 
 326    8:40   0.06   56.6    89    1.2    14     3.0   1017.8    0.00 
 326    8:50   0.05   56.5    90    0.3   345     1.2   1017.9    0.01 
 326    9:00   0.05   56.6    92    0.1    65     1.1   1018.1    0.01 
 326    9:10   0.05   56.5    93    0.3    56     1.8   1018.3    0.01 
 326    9:20   0.05   56.7    93    0.0   189     0.4   1018.3    0.02 
 326    9:30   0.05   56.8    94    0.5   122     2.6   1018.3    0.00 
 326    9:40   0.06   56.8    94    0.6   219     3.2   1018.4    0.00 
 326    9:50   0.07   56.9    95    0.1   192     1.2   1018.5    0.01 
 326   10:00   0.10   57.1    95    0.2   347     1.3   1018.5    0.00 
 326   10:10   0.13   57.8    96    0.1   270     1.7   1018.3    0.00 
 326   10:20   0.09   58.1    95    0.5   220     2.0   1018.3    0.00 
 326   10:30   0.09   57.5    95    0.6   261     2.3   1018.2    0.00 
 326   10:40   0.08   57.4    96    0.2   224     1.4   1018.3    0.01 
 326   10:50   0.10   57.4    96    0.4   216     1.2   1018.2    0.01 
 326   11:00   0.12   57.7    96    0.1   196     0.9   1018.1    0.00 
 326   11:10   0.12   58.4    96    0.1   210     0.9   1018.0    0.01 
 326   11:20   0.10   58.2    96    0.8   215     2.8   1017.9    0.01 
 326   11:30   0.10   57.9    96    0.6   202     1.7   1017.9    0.02 
 326   11:40   0.10   58.1    96    0.0   193     0.7   1017.8    0.03 
 326   11:50   0.11   58.4    96    0.3   200     1.7   1017.5    0.02 
 326   12:00   0.08   58.3    96    0.2   195     1.1   1017.4    0.02 
 326   12:10   0.10   58.5    97    0.1   239     1.6   1017.1    0.02 
 326   12:20   0.11   59.0    97    0.0   213     0.7   1017.0    0.01 
 326   12:30   0.09   58.6    96    0.8   205     2.1   1016.8    0.01 
 326   12:40   0.11   58.8    97    0.5   213     2.0   1016.8    0.01 
 326   12:50   0.13   59.1    97    0.2   195     1.4   1016.6    0.01 
 326   13:00   0.12   59.1    97    0.4   206     1.5   1016.7    0.01 

Return to Big Creek Reserve Entrance graphs page.


Western Regional Climate Center,wrcc@dri.edu